sensor_id;sensor_type;location;lat;lon;timestamp;pressure;altitude;pressure_sealevel;temperature;humidity
23164;BME280;31429;42.674;23.350;2023-02-20T00:00:19;95078.47;;;12.20;96.91
23164;BME280;31429;42.674;23.350;2023-02-20T00:01:21;95082.09;;;12.14;91.61
23164;BME280;31429;42.674;23.350;2023-02-20T00:02:22;95076.97;;;12.14;98.23
23164;BME280;31429;42.674;23.350;2023-02-20T00:03:22;95079.31;;;12.20;100.00
23164;BME280;31429;42.674;23.350;2023-02-20T00:04:23;95088.53;;;12.24;98.92
23164;BME280;31429;42.674;23.350;2023-02-20T00:05:24;95078.16;;;12.27;100.00
23164;BME280;31429;42.674;23.350;2023-02-20T00:06:24;95088.53;;;12.24;98.13
23164;BME280;31429;42.674;23.350;2023-02-20T00:07:26;95085.81;;;12.29;99.39
23164;BME280;31429;42.674;23.350;2023-02-20T00:08:27;95087.56;;;12.27;92.68
23164;BME280;31429;42.674;23.350;2023-02-20T00:09:28;95089.72;;;12.16;90.82
23164;BME280;31429;42.674;23.350;2023-02-20T00:10:28;95088.09;;;12.13;93.98
23164;BME280;31429;42.674;23.350;2023-02-20T00:11:29;95087.81;;;11.99;92.65
23164;BME280;31429;42.674;23.350;2023-02-20T00:12:29;95087.81;;;11.99;97.91
23164;BME280;31429;42.674;23.350;2023-02-20T00:13:32;95088.75;;;11.96;93.45
23164;BME280;31429;42.674;23.350;2023-02-20T00:14:32;95086.41;;;11.90;94.22
23164;BME280;31429;42.674;23.350;2023-02-20T00:15:33;95089.72;;;11.94;95.37
23164;BME280;31429;42.674;23.350;2023-02-20T00:16:34;95094.28;;;11.86;93.83
23164;BME280;31429;42.674;23.350;2023-02-20T00:17:34;95093.16;;;11.93;97.56
23164;BME280;31429;42.674;23.350;2023-02-20T00:18:35;95083.09;;;11.88;98.99
23164;BME280;31429;42.674;23.350;2023-02-20T00:19:35;95090.06;;;12.06;100.00
23164;BME280;31429;42.674;23.350;2023-02-20T00:20:36;95086.50;;;11.89;96.72
23164;BME280;31429;42.674;23.350;2023-02-20T00:21:37;95088.25;;;11.87;100.00
23164;BME280;31429;42.674;23.350;2023-02-20T00:22:45;95081.00;;;11.98;100.00
23164;BME280;31429;42.674;23.350;2023-02-20T00:23:45;95082.34;;;11.85;94.39
23164;BME280;31429;42.674;23.350;2023-02-20T00:24:46;95086.41;;;11.90;100.00
23164;BME280;31429;42.674;23.350;2023-02-20T00:25:46;95083.47;;;11.78;92.27
23164;BME280;31429;42.674;23.350;2023-02-20T00:26:48;95091.53;;;11.67;91.73
23164;BME280;31429;42.674;23.350;2023-02-20T00:27:50;95076.06;;;11.70;100.00
23164;BME280;31429;42.674;23.350;2023-02-20T00:28:50;95088.78;;;11.73;98.48
23164;BME280;31429;42.674;23.350;2023-02-20T00:29:51;95096.88;;;11.84;100.00
23164;BME280;31429;42.674;23.350;2023-02-20T00:30:52;95082.56;;;11.55;96.61
23164;BME280;31429;42.674;23.350;2023-02-20T00:31:53;95088.38;;;11.84;100.00
23164;BME280;31429;42.674;23.350;2023-02-20T00:32:55;95075.97;;;11.95;100.00
23164;BME280;31429;42.674;23.350;2023-02-20T00:33:56;95088.75;;;11.96;100.00
23164;BME280;31429;42.674;23.350;2023-02-20T00:34:57;95082.44;;;12.05;100.00
23164;BME280;31429;42.674;23.350;2023-02-20T00:35:57;95080.94;;;11.99;100.00
23164;BME280;31429;42.674;23.350;2023-02-20T00:36:58;95094.84;;;11.94;100.00
23164;BME280;31429;42.674;23.350;2023-02-20T00:38:00;95083.50;;;11.99;100.00
23164;BME280;31429;42.674;23.350;2023-02-20T00:39:01;95089.81;;;11.91;98.60
23164;BME280;31429;42.674;23.350;2023-02-20T00:40:01;95080.69;;;11.84;100.00
23164;BME280;31429;42.674;23.350;2023-02-20T00:41:02;95080.53;;;11.88;100.00
23164;BME280;31429;42.674;23.350;2023-02-20T00:42:03;95082.34;;;11.85;96.49
23164;BME280;31429;42.674;23.350;2023-02-20T00:43:03;95080.31;;;11.94;100.00
23164;BME280;31429;42.674;23.350;2023-02-20T00:44:04;95074.28;;;11.72;98.69
23164;BME280;31429;42.674;23.350;2023-02-20T00:45:06;95077.84;;;11.68;100.00
23164;BME280;31429;42.674;23.350;2023-02-20T00:46:10;95078.13;;;11.84;100.00
23164;BME280;31429;42.674;23.350;2023-02-20T00:47:11;95076.63;;;11.78;100.00
23164;BME280;31429;42.674;23.350;2023-02-20T00:48:11;95083.81;;;11.92;100.00
23164;BME280;31429;42.674;23.350;2023-02-20T00:49:12;95085.16;;;12.00;100.00
23164;BME280;31429;42.674;23.350;2023-02-20T00:50:14;95080.66;;;12.07;100.00
23164;BME280;31429;42.674;23.350;2023-02-20T00:51:15;95082.56;;;12.02;100.00
23164;BME280;31429;42.674;23.350;2023-02-20T00:52:16;95085.81;;;11.61;100.00
23164;BME280;31429;42.674;23.350;2023-02-20T00:53:18;95095.50;;;11.76;100.00
23164;BME280;31429;42.674;23.350;2023-02-20T00:54:19;95084.16;;;11.83;100.00
23164;BME280;31429;42.674;23.350;2023-02-20T00:55:19;95091.66;;;11.87;100.00
23164;BME280;31429;42.674;23.350;2023-02-20T00:56:20;95093.31;;;11.65;100.00
23164;BME280;31429;42.674;23.350;2023-02-20T00:57:20;95098.13;;;11.74;100.00
23164;BME280;31429;42.674;23.350;2023-02-20T00:58:21;95098.44;;;11.65;100.00
23164;BME280;31429;42.674;23.350;2023-02-20T00:59:22;95086.19;;;11.50;100.00
23164;BME280;31429;42.674;23.350;2023-02-20T01:00:25;95092.63;;;11.37;100.00
23164;BME280;31429;42.674;23.350;2023-02-20T01:01:26;95094.25;;;11.63;100.00
23164;BME280;31429;42.674;23.350;2023-02-20T01:02:27;95095.81;;;11.67;100.00
23164;BME280;31429;42.674;23.350;2023-02-20T01:03:27;95103.47;;;11.67;100.00
23164;BME280;31429;42.674;23.350;2023-02-20T01:04:28;95110.69;;;11.57;100.00
23164;BME280;31429;42.674;23.350;2023-02-20T01:05:29;95110.56;;;11.60;100.00
23164;BME280;31429;42.674;23.350;2023-02-20T01:06:29;95112.19;;;11.63;100.00
23164;BME280;31429;42.674;23.350;2023-02-20T01:07:30;95114.09;;;11.58;100.00
23164;BME280;31429;42.674;23.350;2023-02-20T01:08:32;95109.72;;;11.36;100.00
23164;BME280;31429;42.674;23.350;2023-02-20T01:09:33;95116.66;;;11.33;100.00
23164;BME280;31429;42.674;23.350;2023-02-20T01:10:33;95113.66;;;11.45;100.00
23164;BME280;31429;42.674;23.350;2023-02-20T01:11:34;95114.94;;;11.33;100.00
23164;BME280;31429;42.674;23.350;2023-02-20T01:12:34;95118.22;;;11.37;100.00
23164;BME280;31429;42.674;23.350;2023-02-20T01:13:35;95127.94;;;11.27;100.00
23164;BME280;31429;42.674;23.350;2023-02-20T01:14:36;95115.25;;;11.24;100.00
23164;BME280;31429;42.674;23.350;2023-02-20T01:15:37;95121.16;;;11.26;100.00
23164;BME280;31429;42.674;23.350;2023-02-20T01:16:43;95124.72;;;11.22;100.00
23164;BME280;31429;42.674;23.350;2023-02-20T01:17:44;95118.16;;;11.38;100.00
23164;BME280;31429;42.674;23.350;2023-02-20T01:18:48;95132.72;;;11.38;100.00
23164;BME280;31429;42.674;23.350;2023-02-20T01:19:49;95134.25;;;11.42;100.00
23164;BME280;31429;42.674;23.350;2023-02-20T01:20:49;95132.69;;;11.13;100.00
23164;BME280;31429;42.674;23.350;2023-02-20T01:21:50;95126.34;;;11.00;100.00
23164;BME280;31429;42.674;23.350;2023-02-20T01:22:51;95132.38;;;10.98;100.00
23164;BME280;31429;42.674;23.350;2023-02-20T01:23:54;95130.19;;;11.12;100.00
23164;BME280;31429;42.674;23.350;2023-02-20T01:24:54;95128.41;;;10.89;100.00
23164;BME280;31429;42.674;23.350;2023-02-20T01:25:55;95133.25;;;10.96;100.00
23164;BME280;31429;42.674;23.350;2023-02-20T01:26:55;95151.03;;;11.01;100.00
23164;BME280;31429;42.674;23.350;2023-02-20T01:27:56;95150.09;;;11.04;100.00
23164;BME280;31429;42.674;23.350;2023-02-20T01:28:57;95155.72;;;11.13;100.00
23164;BME280;31429;42.674;23.350;2023-02-20T01:29:57;95146.97;;;11.20;100.00
23164;BME280;31429;42.674;23.350;2023-02-20T01:30:58;95154.22;;;11.08;100.00
23164;BME280;31429;42.674;23.350;2023-02-20T01:31:59;95159.78;;;10.94;100.00
23164;BME280;31429;42.674;23.350;2023-02-20T01:32:59;95154.50;;;10.98;100.00
23164;BME280;31429;42.674;23.350;2023-02-20T01:34:00;95151.75;;;11.05;100.00
23164;BME280;31429;42.674;23.350;2023-02-20T01:35:01;95150.72;;;11.10;100.00
23164;BME280;31429;42.674;23.350;2023-02-20T01:36:02;95145.50;;;11.13;100.00
23164;BME280;31429;42.674;23.350;2023-02-20T01:37:03;95149.31;;;11.26;100.00
23164;BME280;31429;42.674;23.350;2023-02-20T01:38:04;95145.75;;;11.30;100.00
23164;BME280;31429;42.674;23.350;2023-02-20T01:39:07;95147.75;;;11.22;100.00
23164;BME280;31429;42.674;23.350;2023-02-20T01:40:14;95145.09;;;11.25;100.00
23164;BME280;31429;42.674;23.350;2023-02-20T01:41:15;95140.91;;;10.98;100.00
23164;BME280;31429;42.674;23.350;2023-02-20T01:42:19;95136.97;;;11.13;100.00
23164;BME280;31429;42.674;23.350;2023-02-20T01:43:20;95133.88;;;11.29;100.00
23164;BME280;31429;42.674;23.350;2023-02-20T01:44:23;95144.09;;;11.29;100.00
23164;BME280;31429;42.674;23.350;2023-02-20T01:45:32;95141.31;;;11.11;100.00
23164;BME280;31429;42.674;23.350;2023-02-20T01:46:46;95131.84;;;11.13;100.00
23164;BME280;31429;42.674;23.350;2023-02-20T01:47:49;95149.34;;;11.25;100.00
23164;BME280;31429;42.674;23.350;2023-02-20T01:48:49;95142.78;;;11.42;100.00
23164;BME280;31429;42.674;23.350;2023-02-20T01:49:53;95143.06;;;11.35;100.00
23164;BME280;31429;42.674;23.350;2023-02-20T01:50:58;95156.56;;;11.38;100.00
23164;BME280;31429;42.674;23.350;2023-02-20T01:52:05;95145.28;;;11.19;100.00
23164;BME280;31429;42.674;23.350;2023-02-20T01:53:10;95161.84;;;11.09;100.00
23164;BME280;31429;42.674;23.350;2023-02-20T01:54:14;95151.97;;;11.23;100.00
23164;BME280;31429;42.674;23.350;2023-02-20T01:55:19;95131.97;;;11.34;100.00
23164;BME280;31429;42.674;23.350;2023-02-20T01:56:20;95138.38;;;11.21;100.00
23164;BME280;31429;42.674;23.350;2023-02-20T01:57:23;95139.22;;;11.46;100.00
23164;BME280;31429;42.674;23.350;2023-02-20T01:58:28;95152.06;;;11.45;100.00
23164;BME280;31429;42.674;23.350;2023-02-20T01:59:32;95150.03;;;11.30;100.00
23164;BME280;31429;42.674;23.350;2023-02-20T02:00:35;95153.31;;;11.33;100.00
23164;BME280;31429;42.674;23.350;2023-02-20T02:01:37;95156.38;;;11.20;100.00
23164;BME280;31429;42.674;23.350;2023-02-20T02:02:41;95147.81;;;11.44;100.00
23164;BME280;31429;42.674;23.350;2023-02-20T02:03:45;95158.44;;;11.33;100.00
23164;BME280;31429;42.674;23.350;2023-02-20T02:04:48;95153.13;;;11.39;100.00
23164;BME280;31429;42.674;23.350;2023-02-20T02:05:57;95167.84;;;11.08;100.00
23164;BME280;31429;42.674;23.350;2023-02-20T02:06:59;95166.63;;;11.18;100.00
23164;BME280;31429;42.674;23.350;2023-02-20T02:08:02;95164.03;;;10.95;100.00
23164;BME280;31429;42.674;23.350;2023-02-20T02:09:08;95162.13;;;11.26;100.00
23164;BME280;31429;42.674;23.350;2023-02-20T02:10:16;95160.44;;;11.25;100.00
23164;BME280;31429;42.674;23.350;2023-02-20T02:11:19;95138.66;;;11.14;100.00
23164;BME280;31429;42.674;23.350;2023-02-20T02:12:22;95152.38;;;11.11;100.00
23164;BME280;31429;42.674;23.350;2023-02-20T02:13:23;95145.25;;;11.21;100.00
23164;BME280;31429;42.674;23.350;2023-02-20T02:14:24;95150.78;;;11.33;100.00
23164;BME280;31429;42.674;23.350;2023-02-20T02:15:24;95148.91;;;10.87;100.00
23164;BME280;31429;42.674;23.350;2023-02-20T02:16:29;95148.72;;;10.93;100.00
23164;BME280;31429;42.674;23.350;2023-02-20T02:17:56;95152.84;;;10.98;100.00
23164;BME280;31429;42.674;23.350;2023-02-20T02:19:02;95146.91;;;10.97;100.00
23164;BME280;31429;42.674;23.350;2023-02-20T02:20:33;95159.53;;;11.02;100.00
23164;BME280;31429;42.674;23.350;2023-02-20T02:22:07;95166.91;;;11.11;100.00
23164;BME280;31429;42.674;23.350;2023-02-20T02:23:58;95163.47;;;11.12;100.00
23164;BME280;31429;42.674;23.350;2023-02-20T02:25:30;95153.44;;;11.06;100.00
23164;BME280;31429;42.674;23.350;2023-02-20T02:27:01;95165.88;;;10.90;100.00
23164;BME280;31429;42.674;23.350;2023-02-20T02:28:43;95173.38;;;10.70;100.00
23164;BME280;31429;42.674;23.350;2023-02-20T02:35:20;95184.63;;;10.36;100.00
23164;BME280;31429;42.674;23.350;2023-02-20T02:36:42;95184.00;;;10.28;100.00
23164;BME280;31429;42.674;23.350;2023-02-20T02:37:56;95194.78;;;10.09;100.00
23164;BME280;31429;42.674;23.350;2023-02-20T02:39:03;95195.91;;;10.29;100.00
23164;BME280;31429;42.674;23.350;2023-02-20T02:40:12;95174.22;;;10.13;100.00
23164;BME280;31429;42.674;23.350;2023-02-20T02:41:21;95177.34;;;10.52;100.00
23164;BME280;31429;42.674;23.350;2023-02-20T02:42:28;95172.16;;;10.54;100.00
23164;BME280;31429;42.674;23.350;2023-02-20T02:43:35;95180.00;;;10.48;100.00
23164;BME280;31429;42.674;23.350;2023-02-20T02:44:43;95175.75;;;10.20;100.00
23164;BME280;31429;42.674;23.350;2023-02-20T02:45:50;95175.63;;;10.53;100.00
23164;BME280;31429;42.674;23.350;2023-02-20T02:46:56;95182.97;;;10.35;100.00
23164;BME280;31429;42.674;23.350;2023-02-20T02:48:02;95184.84;;;10.29;100.00
23164;BME280;31429;42.674;23.350;2023-02-20T02:49:08;95185.28;;;10.14;100.00
23164;BME280;31429;42.674;23.350;2023-02-20T02:50:15;95183.06;;;10.31;100.00
23164;BME280;31429;42.674;23.350;2023-02-20T02:51:20;95180.91;;;10.47;100.00
23164;BME280;31429;42.674;23.350;2023-02-20T02:52:25;95173.28;;;10.45;100.00
23164;BME280;31429;42.674;23.350;2023-02-20T02:54:04;95179.19;;;10.47;100.00
23164;BME280;31429;42.674;23.350;2023-02-20T02:55:05;95170.78;;;10.44;100.00
23164;BME280;31429;42.674;23.350;2023-02-20T02:56:08;95175.91;;;10.42;100.00
23164;BME280;31429;42.674;23.350;2023-02-20T02:57:23;95179.06;;;10.50;100.00
23164;BME280;31429;42.674;23.350;2023-02-20T02:58:24;95170.72;;;10.45;100.00
23164;BME280;31429;42.674;23.350;2023-02-20T02:59:27;95189.97;;;10.57;100.00
23164;BME280;31429;42.674;23.350;2023-02-20T03:00:32;95184.09;;;10.25;100.00
23164;BME280;31429;42.674;23.350;2023-02-20T03:01:42;95186.09;;;10.16;100.00
23164;BME280;31429;42.674;23.350;2023-02-20T03:02:49;95190.50;;;10.09;100.00
23164;BME280;31429;42.674;23.350;2023-02-20T03:03:51;95201.47;;;10.14;100.00
23164;BME280;31429;42.674;23.350;2023-02-20T03:04:55;95207.88;;;10.27;100.00
23164;BME280;31429;42.674;23.350;2023-02-20T03:06:01;95206.63;;;10.11;100.00
23164;BME280;31429;42.674;23.350;2023-02-20T03:07:06;95205.81;;;9.80;100.00
23164;BME280;31429;42.674;23.350;2023-02-20T03:08:14;95209.06;;;9.54;100.00
23164;BME280;31429;42.674;23.350;2023-02-20T03:09:24;95216.16;;;9.45;100.00
23164;BME280;31429;42.674;23.350;2023-02-20T03:10:26;95209.63;;;9.65;100.00
23164;BME280;31429;42.674;23.350;2023-02-20T03:11:33;95219.47;;;10.10;100.00
23164;BME280;31429;42.674;23.350;2023-02-20T03:12:37;95222.56;;;9.90;100.00
23164;BME280;31429;42.674;23.350;2023-02-20T03:13:42;95221.50;;;9.97;100.00
23164;BME280;31429;42.674;23.350;2023-02-20T03:15:06;95219.38;;;9.82;100.00
23164;BME280;31429;42.674;23.350;2023-02-20T03:16:32;95223.59;;;9.85;100.00
23164;BME280;31429;42.674;23.350;2023-02-20T03:17:39;95215.03;;;9.86;100.00
23164;BME280;31429;42.674;23.350;2023-02-20T03:18:41;95209.44;;;10.33;100.00
23164;BME280;31429;42.674;23.350;2023-02-20T03:19:43;95212.09;;;10.30;100.00
23164;BME280;31429;42.674;23.350;2023-02-20T03:20:48;95213.75;;;10.00;100.00
23164;BME280;31429;42.674;23.350;2023-02-20T03:21:50;95217.19;;;9.99;100.00
23164;BME280;31429;42.674;23.350;2023-02-20T03:22:54;95219.16;;;10.20;100.00
23164;BME280;31429;42.674;23.350;2023-02-20T03:24:00;95227.50;;;10.27;100.00
23164;BME280;31429;42.674;23.350;2023-02-20T03:25:05;95224.28;;;10.20;100.00
23164;BME280;31429;42.674;23.350;2023-02-20T03:26:13;95222.25;;;10.31;100.00
23164;BME280;31429;42.674;23.350;2023-02-20T03:27:17;95222.50;;;9.93;100.00
23164;BME280;31429;42.674;23.350;2023-02-20T03:28:20;95223.97;;;10.00;100.00
23164;BME280;31429;42.674;23.350;2023-02-20T03:29:28;95223.19;;;9.98;100.00
23164;BME280;31429;42.674;23.350;2023-02-20T03:30:35;95226.59;;;9.99;100.00
23164;BME280;31429;42.674;23.350;2023-02-20T03:31:41;95234.28;;;9.97;100.00
23164;BME280;31429;42.674;23.350;2023-02-20T03:32:43;95241.22;;;9.92;100.00
23164;BME280;31429;42.674;23.350;2023-02-20T03:34:08;95239.94;;;9.77;100.00
23164;BME280;31429;42.674;23.350;2023-02-20T03:35:30;95253.09;;;9.62;100.00
23164;BME280;31429;42.674;23.350;2023-02-20T03:36:55;95250.84;;;9.82;100.00
23164;BME280;31429;42.674;23.350;2023-02-20T03:38:20;95257.84;;;9.76;100.00
23164;BME280;31429;42.674;23.350;2023-02-20T03:39:44;95253.78;;;10.00;100.00
23164;BME280;31429;42.674;23.350;2023-02-20T03:41:07;95247.84;;;9.99;100.00
23164;BME280;31429;42.674;23.350;2023-02-20T03:42:30;95239.22;;;9.72;100.00
23164;BME280;31429;42.674;23.350;2023-02-20T03:43:52;95242.41;;;9.80;100.00
23164;BME280;31429;42.674;23.350;2023-02-20T03:44:54;95241.16;;;9.95;100.00
23164;BME280;31429;42.674;23.350;2023-02-20T03:45:58;95245.41;;;9.95;100.00
23164;BME280;31429;42.674;23.350;2023-02-20T03:47:02;95242.16;;;9.90;100.00
23164;BME280;31429;42.674;23.350;2023-02-20T03:48:08;95238.25;;;9.76;100.00
23164;BME280;31429;42.674;23.350;2023-02-20T03:49:12;95254.69;;;9.66;100.00
23164;BME280;31429;42.674;23.350;2023-02-20T03:50:13;95254.72;;;9.65;100.00
23164;BME280;31429;42.674;23.350;2023-02-20T03:51:33;95253.66;;;9.73;100.00
23164;BME280;31429;42.674;23.350;2023-02-20T03:52:34;95247.66;;;10.05;100.00
23164;BME280;31429;42.674;23.350;2023-02-20T03:53:34;95244.66;;;9.91;100.00
23164;BME280;31429;42.674;23.350;2023-02-20T03:54:35;95254.47;;;9.74;100.00
23164;BME280;31429;42.674;23.350;2023-02-20T03:55:37;95243.31;;;9.78;100.00
23164;BME280;31429;42.674;23.350;2023-02-20T03:56:41;95245.16;;;9.73;100.00
23164;BME280;31429;42.674;23.350;2023-02-20T03:57:46;95240.53;;;9.87;100.00
23164;BME280;31429;42.674;23.350;2023-02-20T03:58:53;95246.19;;;9.97;100.00
23164;BME280;31429;42.674;23.350;2023-02-20T03:59:58;95243.00;;;9.90;100.00
23164;BME280;31429;42.674;23.350;2023-02-20T04:01:02;95244.47;;;9.99;100.00
23164;BME280;31429;42.674;23.350;2023-02-20T04:02:08;95238.53;;;9.66;100.00
23164;BME280;31429;42.674;23.350;2023-02-20T04:03:14;95246.25;;;9.64;100.00
23164;BME280;31429;42.674;23.350;2023-02-20T04:04:19;95249.19;;;9.81;100.00
23164;BME280;31429;42.674;23.350;2023-02-20T04:05:25;95248.50;;;9.75;100.00
23164;BME280;31429;42.674;23.350;2023-02-20T04:06:29;95238.97;;;9.81;100.00
23164;BME280;31429;42.674;23.350;2023-02-20T04:07:34;95236.97;;;9.93;100.00
23164;BME280;31429;42.674;23.350;2023-02-20T04:08:37;95246.88;;;10.03;100.00
23164;BME280;31429;42.674;23.350;2023-02-20T04:09:41;95246.81;;;9.74;100.00
23164;BME280;31429;42.674;23.350;2023-02-20T04:10:48;95251.44;;;9.92;100.00
23164;BME280;31429;42.674;23.350;2023-02-20T04:11:55;95246.38;;;9.91;100.00
23164;BME280;31429;42.674;23.350;2023-02-20T04:12:59;95255.56;;;9.98;100.00
23164;BME280;31429;42.674;23.350;2023-02-20T04:14:00;95250.66;;;9.90;100.00
23164;BME280;31429;42.674;23.350;2023-02-20T04:15:04;95254.00;;;9.92;100.00
23164;BME280;31429;42.674;23.350;2023-02-20T04:16:06;95258.06;;;9.99;100.00
23164;BME280;31429;42.674;23.350;2023-02-20T04:17:12;95258.88;;;10.01;100.00
23164;BME280;31429;42.674;23.350;2023-02-20T04:18:15;95256.97;;;10.08;100.00
23164;BME280;31429;42.674;23.350;2023-02-20T04:19:17;95240.56;;;9.86;100.00
23164;BME280;31429;42.674;23.350;2023-02-20T04:20:18;95261.03;;;9.84;100.00
23164;BME280;31429;42.674;23.350;2023-02-20T04:21:22;95260.41;;;9.42;100.00
23164;BME280;31429;42.674;23.350;2023-02-20T04:22:31;95248.88;;;9.61;100.00
23164;BME280;31429;42.674;23.350;2023-02-20T04:23:37;95257.06;;;9.06;100.00
23164;BME280;31429;42.674;23.350;2023-02-20T04:24:42;95264.31;;;8.88;100.00
23164;BME280;31429;42.674;23.350;2023-02-20T04:25:48;95264.41;;;8.85;100.00
23164;BME280;31429;42.674;23.350;2023-02-20T04:26:51;95263.28;;;8.95;100.00
23164;BME280;31429;42.674;23.350;2023-02-20T04:27:52;95262.44;;;8.94;100.00
23164;BME280;31429;42.674;23.350;2023-02-20T04:28:52;95263.75;;;8.75;100.00
23164;BME280;31429;42.674;23.350;2023-02-20T04:29:53;95259.44;;;9.14;100.00
23164;BME280;31429;42.674;23.350;2023-02-20T04:30:54;95273.00;;;9.16;100.00
23164;BME280;31429;42.674;23.350;2023-02-20T04:31:55;95264.91;;;8.99;100.00
23164;BME280;31429;42.674;23.350;2023-02-20T04:32:55;95264.78;;;9.05;100.00
23164;BME280;31429;42.674;23.350;2023-02-20T04:33:56;95278.63;;;9.29;100.00
23164;BME280;31429;42.674;23.350;2023-02-20T04:34:57;95275.44;;;9.54;100.00
23164;BME280;31429;42.674;23.350;2023-02-20T04:35:57;95273.34;;;9.68;100.00
23164;BME280;31429;42.674;23.350;2023-02-20T04:37:04;95248.28;;;9.82;100.00
23164;BME280;31429;42.674;23.350;2023-02-20T04:38:07;95255.94;;;9.84;100.00
23164;BME280;31429;42.674;23.350;2023-02-20T04:39:08;95261.75;;;9.89;100.00
23164;BME280;31429;42.674;23.350;2023-02-20T04:40:09;95267.47;;;9.65;100.00
23164;BME280;31429;42.674;23.350;2023-02-20T04:41:11;95266.31;;;9.78;100.00
23164;BME280;31429;42.674;23.350;2023-02-20T04:42:12;95254.47;;;9.74;100.00
23164;BME280;31429;42.674;23.350;2023-02-20T04:43:12;95244.03;;;9.83;100.00
23164;BME280;31429;42.674;23.350;2023-02-20T04:44:13;95250.59;;;9.93;100.00
23164;BME280;31429;42.674;23.350;2023-02-20T04:45:33;95245.16;;;9.73;100.00
23164;BME280;31429;42.674;23.350;2023-02-20T04:46:34;95257.19;;;9.69;100.00
23164;BME280;31429;42.674;23.350;2023-02-20T04:47:34;95255.31;;;9.76;100.00
23164;BME280;31429;42.674;23.350;2023-02-20T04:48:35;95258.03;;;9.70;100.00
23164;BME280;31429;42.674;23.350;2023-02-20T04:49:35;95258.44;;;9.86;100.00
23164;BME280;31429;42.674;23.350;2023-02-20T04:50:36;95269.94;;;9.69;100.00
23164;BME280;31429;42.674;23.350;2023-02-20T04:51:37;95269.38;;;9.58;100.00
23164;BME280;31429;42.674;23.350;2023-02-20T04:52:37;95267.66;;;9.59;100.00
23164;BME280;31429;42.674;23.350;2023-02-20T04:53:39;95259.09;;;9.61;100.00
23164;BME280;31429;42.674;23.350;2023-02-20T04:54:39;95264.69;;;9.75;100.00
23164;BME280;31429;42.674;23.350;2023-02-20T04:55:40;95276.13;;;9.59;100.00
23164;BME280;31429;42.674;23.350;2023-02-20T04:56:42;95277.81;;;9.62;100.00
23164;BME280;31429;42.674;23.350;2023-02-20T04:57:42;95287.03;;;9.34;100.00
23164;BME280;31429;42.674;23.350;2023-02-20T04:58:45;95286.47;;;9.21;100.00
23164;BME280;31429;42.674;23.350;2023-02-20T04:59:46;95287.47;;;9.49;100.00
23164;BME280;31429;42.674;23.350;2023-02-20T05:00:46;95284.66;;;9.60;100.00
23164;BME280;31429;42.674;23.350;2023-02-20T05:01:47;95279.88;;;9.48;100.00
23164;BME280;31429;42.674;23.350;2023-02-20T05:02:51;95283.50;;;9.39;100.00
23164;BME280;31429;42.674;23.350;2023-02-20T05:03:52;95277.81;;;9.62;100.00
23164;BME280;31429;42.674;23.350;2023-02-20T05:04:52;95292.03;;;9.37;100.00
23164;BME280;31429;42.674;23.350;2023-02-20T05:05:53;95295.19;;;8.74;100.00
23164;BME280;31429;42.674;23.350;2023-02-20T05:06:54;95292.59;;;8.77;100.00
23164;BME280;31429;42.674;23.350;2023-02-20T05:07:57;95301.66;;;8.90;100.00
23164;BME280;31429;42.674;23.350;2023-02-20T05:08:57;95298.28;;;9.25;100.00
23164;BME280;31429;42.674;23.350;2023-02-20T05:09:58;95295.03;;;9.18;100.00
23164;BME280;31429;42.674;23.350;2023-02-20T05:10:59;95294.91;;;9.24;100.00
23164;BME280;31429;42.674;23.350;2023-02-20T05:12:01;95301.44;;;9.35;100.00
23164;BME280;31429;42.674;23.350;2023-02-20T05:13:02;95303.91;;;9.39;100.00
23164;BME280;31429;42.674;23.350;2023-02-20T05:14:03;95303.00;;;9.42;100.00
23164;BME280;31429;42.674;23.350;2023-02-20T05:15:04;95305.69;;;9.36;100.00
23164;BME280;31429;42.674;23.350;2023-02-20T05:16:05;95302.66;;;9.20;100.00
23164;BME280;31429;42.674;23.350;2023-02-20T05:17:06;95292.59;;;9.14;100.00
23164;BME280;31429;42.674;23.350;2023-02-20T05:18:06;95313.69;;;9.20;100.00
23164;BME280;31429;42.674;23.350;2023-02-20T05:19:07;95306.41;;;9.41;100.00
23164;BME280;31429;42.674;23.350;2023-02-20T05:20:09;95302.09;;;9.43;100.00
23164;BME280;31429;42.674;23.350;2023-02-20T05:21:12;95299.69;;;9.37;100.00
23164;BME280;31429;42.674;23.350;2023-02-20T05:22:32;95297.59;;;9.52;100.00
23164;BME280;31429;42.674;23.350;2023-02-20T05:23:32;95290.06;;;9.48;100.00
23164;BME280;31429;42.674;23.350;2023-02-20T05:24:33;95294.91;;;9.58;100.00
23164;BME280;31429;42.674;23.350;2023-02-20T05:25:34;95295.53;;;9.66;100.00
23164;BME280;31429;42.674;23.350;2023-02-20T05:26:34;95299.22;;;9.56;100.00
23164;BME280;31429;42.674;23.350;2023-02-20T05:27:36;95302.09;;;9.43;100.00
23164;BME280;31429;42.674;23.350;2023-02-20T05:28:37;95297.53;;;9.55;100.00
23164;BME280;31429;42.674;23.350;2023-02-20T05:29:43;95301.78;;;9.55;100.00
23164;BME280;31429;42.674;23.350;2023-02-20T05:30:44;95314.13;;;9.38;100.00
23164;BME280;31429;42.674;23.350;2023-02-20T05:31:44;95314.44;;;9.59;100.00
23164;BME280;31429;42.674;23.350;2023-02-20T05:32:45;95306.63;;;9.32;100.00
23164;BME280;31429;42.674;23.350;2023-02-20T05:33:45;95307.94;;;9.48;100.00
23164;BME280;31429;42.674;23.350;2023-02-20T05:34:46;95317.28;;;9.13;100.00
23164;BME280;31429;42.674;23.350;2023-02-20T05:35:47;95327.59;;;9.43;100.00
23164;BME280;31429;42.674;23.350;2023-02-20T05:36:48;95324.19;;;9.77;100.00
23164;BME280;31429;42.674;23.350;2023-02-20T05:37:48;95334.47;;;9.41;100.00
23164;BME280;31429;42.674;23.350;2023-02-20T05:38:49;95340.97;;;9.17;100.00
23164;BME280;31429;42.674;23.350;2023-02-20T05:39:50;95345.16;;;9.19;100.00